Tiempo atmosférico en la estación meteorológica de Burgo de Osma, Soria (932 m.)

Fecha
DESCASC
Temp. máxima en grados centígrados (hora)
DESCASC
Temp. mínima en grados centígrados (hora)
DESCASC
Temp. media en grados centígrados
DESCASC
Racha de viento máxima en m/sg (hora)
DESCASC
Velocidad máxima media en intervalos de 10 minutos(hora)
DESCASC
Precipitaciones diarias en mm
DESCASC
Precipitaciones de 00:00 a 06:00 en mm
DESCASC
Precipitaciones de 06:00 a 12:00 en mm
DESCASC
Precipitaciones de 12:00 a 18:00 en mm
DESCASC
Precipitaciones de 18:00 a 24:00 en mm
DESCASC
17-08-2017 34.7 (16:50) 10.8 (07:40) 22.8 8.61 (18:50) 5 (11:30) 0 0 0 0 0
16-08-2017 31 (18:00) 10.9 (07:40) 20.9 11.67 (16:00) 6.11 (17:50) 0 0 0 0 0
15-08-2017 31.3 (18:00) 15.8 (00:00) 23.5 13.33 (16:30) 8.33 (16:40) 0 0 0 0 0
14-08-2017 33.2 (14:50) 13.7 (07:00) 23.5 19.17 (19:00) 12.22 (19:00) 1.8 0 0 0 1.8
13-08-2017 33.1 (17:20) 10.1 (00:00) 21.6 8.33 (22:30) 5.83 (22:30) 0 0 0 0 0
12-08-2017 31.8 (18:40) 5.4 (00:00) 18.6 8.06 (21:30) 4.17 (19:10) 0 0 0 0 0
11-08-2017 26.9 (18:30) 4.5 (00:00) 15.7 12.22 (19:50) 7.22 (19:50) 0 0 0 0 0
10-08-2017 24.2 (18:30) 1.9 (00:00) 13.1 9.72 (17:00) 6.39 (19:50) 0 0 0 0 0
09-08-2017 23 (14:50) 7.8 (00:00) 15.4 9.72 (15:30) 6.11 (16:20) 0 0 0 0 0
08-08-2017 24.5 (18:40) 11.8 (00:00) 18.2 11.39 (03:10) 8.89 (03:10) 0 0 0 0 0
07-08-2017 32.5 (16:40) 16.6 (00:00) 24.6 16.94 (13:50) 10.83 (14:20) 0 0 0 0 0
06-08-2017 31.2 (17:20) 12.9 (00:00) 22.1 11.94 (20:10) 7.78 (18:10) 0 0 0 0 0
05-08-2017 35.5 (18:00) 14.9 (00:00) 25.2 12.22 (16:10) 6.67 (20:30) 0 0 0 0 0
04-08-2017 34.2 (18:40) 14.3 (00:00) 24.3 10.56 (15:10) 6.39 (17:30) 0 0 0 0 0
03-08-2017 33.9 (18:30) 10.1 (00:00) 22 10 (17:30) 5.83 (20:20) 0 0 0 0 0
02-08-2017 33.3 (16:20) 10.1 (00:00) 21.7 8.61 (20:00) 5 (18:20) 0 0 0 0 0
01-08-2017 32.2 (17:40) 14.4 (00:00) 23.3 8.61 (17:20) 5.28 (19:20) 0 0 0 0 0
31-07-2017 32.4 (18:10) 10.7 (00:00) 21.6 11.39 (14:50) 7.5 (19:20) 0 0 0 0 0
30-07-2017 33.2 (16:50) 11.7 (00:00) 22.5 13.89 (17:00) 8.61 (19:00) 0 0 0 0 0
29-07-2017 32.6 (17:50) 12.6 (00:00) 22.6 12.22 (16:30) 7.5 (16:10) 0 0 0 0 0
28-07-2017 33.4 (18:00) 10.6 (00:00) 22 10.83 (16:20) 7.22 (20:10) 0 0 0 0 0
27-07-2017 33.2 (18:20) 10.8 (00:00) 22 13.06 (17:40) 8.61 (17:30) 0 0 0 0 0
26-07-2017 29.4 (17:40) 7 (00:00) 18.2 12.5 (19:00) 6.11 (15:20) 0 0 0 0 0
25-07-2017 27 (18:00) 7.2 (00:00) 17.1 9.72 (17:30) 6.11 (16:50) 0 0 0 0 0
24-07-2017 27.1 (16:30) 9.9 (00:00) 18.5 10.56 (17:10) 5.83 (18:40) 0 0 0 0 0
23-07-2017 29.4 (18:00) 8.4 (00:00) 18.9 12.22 (17:30) 7.78 (17:30) 0 0 0 0 0
22-07-2017 29.4 (18:40) 8.7 (00:00) 19 14.17 (17:10) 6.39 (17:10) 0 0 0 0 0

Gráficas

Temp. máximas Temp. mínimas Temp. medias Precipitaciones Rachas de viento máximas Velocidades máximas media en intervalos de 10 minutos

Datos horarios

Fecha y hora oficial Temperatura (ºC) Velocidad del viento (km/h) Dirección del viento Racha (km/h) Dirección de racha Precipitación (mm) Presión (hPa) Tendencia (hPa) Humedad (%)
2017-08-20 23:00:00 21.8 9 Este 21 Este 0 -- -- 26
2017-08-20 22:00:00 24.2 4 Este 23 Este 0 -- -- 22
2017-08-20 21:00:00 27.6 13 Este 23 Este 0 -- -- 18
2017-08-20 20:00:00 35.2 0 Calma 13 Este 0 -- -- 16
2017-08-20 19:00:00 33.3 10 Este 17 Este 0 -- -- 17
2017-08-20 18:00:00 33.1 6 Norte 14 Sudoeste 0 -- -- 17
2017-08-20 17:00:00 33.5 3 Norte 19 Sudoeste 0 -- -- 18
2017-08-20 16:00:00 31.4 9 Sudeste 23 Sudeste 0 -- -- 20
2017-08-20 15:00:00 30.4 8 Sur 18 Sudeste 0 -- -- 21
2017-08-20 14:00:00 28.5 11 Sudeste 21 Sudeste 0 -- -- 22
2017-08-20 13:00:00 28.2 4 Sudeste 14 Sudeste 0 -- -- 23
2017-08-20 12:00:00 25 6 Sur 19 Sudeste 0 -- -- 26
2017-08-20 11:00:00 22.4 10 Este 17 Sudeste 0 -- -- 30
2017-08-20 10:00:00 17.9 7 Este 12 Este 0 -- -- 52
2017-08-20 09:00:00 13.4 6 Este 10 Nordeste 0 -- -- 69
2017-08-20 08:00:00 9.5 3 Sudeste 9 Nordeste 0 -- -- 85
2017-08-20 07:00:00 9.3 4 Este 5 Este 0 -- -- 85
2017-08-20 06:00:00 10.8 3 Este 5 Nordeste 0 -- -- 81
2017-08-20 05:00:00 11.2 0 Calma 5 Sudeste 0 -- -- 79
2017-08-20 04:00:00 11.8 4 Este 8 Este 0 -- -- 78
2017-08-20 03:00:00 14 3 Este 12 Este 0 -- -- 70
2017-08-20 02:00:00 16.6 4 Este 14 Sudeste 0 -- -- 59
2017-08-20 01:00:00 17.5 5 Este 15 Este 0 -- -- 58
2017-08-20 00:00:00 19.9 13 Sudeste 22 Sudeste 0 -- -- 51
2017-08-19 23:00:00 21.4 11 Este 19 Este 0 -- -- 48
2017-08-19 22:00:00 23.3 12 Este 21 Este 0 -- -- 44
2017-08-19 21:00:00 26.2 10 Este 23 Este 0 -- -- 38
2017-08-19 20:00:00 30.4 14 Norte 27 Noroeste 0 -- -- 27
2017-08-19 19:00:00 31.2 15 Noroeste 30 Noroeste 0 -- -- 26
2017-08-19 18:00:00 32.3 7 Sudoeste 28 Oeste 0 -- -- 24
2017-08-19 17:00:00 31.4 15 Oeste 35 Sur 0 -- -- 25
2017-08-19 16:00:00 31.2 10 Sur 20 Sudoeste 0 -- -- 26
2017-08-19 15:00:00 30.5 6 Noroeste 20 Sudeste 0 -- -- 29
2017-08-19 14:00:00 28.7 10 Sudeste 20 Este 0 -- -- 32
2017-08-19 13:00:00 27.1 9 Este 29 Sudeste 0 -- -- 37
2017-08-19 12:00:00 24 14 Este 24 Sudeste 0 -- -- 44
2017-08-19 11:00:00 21.5 15 Este 23 Este 0 -- -- 50
2017-08-19 10:00:00 18.4 11 Este 20 Este 0 -- -- 62
2017-08-19 09:00:00 15 8 Este 10 Este 0 -- -- 75
2017-08-19 08:00:00 11.3 3 Sudeste 6 Este 0 -- -- 88
2017-08-19 07:00:00 12.8 2 Este 10 Sudeste 0 -- -- 85
2017-08-19 06:00:00 13.7 4 Este 7 Este 0 -- -- 83
2017-08-19 05:00:00 14.8 8 Este 14 Este 0 -- -- 78
2017-08-19 04:00:00 15.9 12 Este 19 Este 0 -- -- 74
2017-08-19 03:00:00 17.1 12 Sudeste 22 Sudeste 0 -- -- 71
2017-08-19 02:00:00 18 11 Sudeste 18 Este 0 -- -- 70
2017-08-19 01:00:00 19.1 10 Sudeste 20 Sudeste 0 -- -- 66
2017-08-19 00:00:00 20 12 Este 22 Este 0 -- -- 61
2017-08-18 23:00:00 20.7 7 Este 22 Este 0 -- -- 58
2017-08-18 22:00:00 22.7 18 Este 26 Sudeste 0 -- -- 51
2017-08-18 21:00:00 26 6 Norte 28 Norte 0 -- -- 34
2017-08-18 20:00:00 27.9 17 Noroeste 32 Noroeste 0 -- -- 28
2017-08-18 19:00:00 29.1 19 Noroeste 38 Noroeste 0 -- -- 27
2017-08-18 18:00:00 30.9 23 Noroeste 41 Noroeste 0 -- -- 24
2017-08-18 17:00:00 30.9 25 Noroeste 46 Oeste 0 -- -- 24
2017-08-18 16:00:00 31.1 24 Oeste 48 Noroeste 0 -- -- 24
2017-08-18 15:00:00 30 29 Noroeste 44 Oeste 0 -- -- 26
2017-08-18 14:00:00 29.3 28 Oeste 45 Oeste 0 -- -- 28
2017-08-18 13:00:00 28.1 25 Noroeste 38 Oeste 0 -- -- 31
2017-08-18 12:00:00 27.8 17 Oeste 27 Oeste 0 -- -- 31
2017-08-18 11:00:00 25.5 15 Oeste 26 Noroeste 0 -- -- 34
2017-08-18 10:00:00 22.3 3 Nordeste 8 Este 0 -- -- 44
2017-08-18 09:00:00 16.7 2 Norte 5 Sudeste 0 -- -- 59
2017-08-18 08:00:00 13.3 2 Sudeste 6 Nordeste 0 -- -- 70
2017-08-18 07:00:00 12.7 3 Este 6 Este 0 -- -- 72
2017-08-18 06:00:00 13.2 3 Este 6 Este 0 -- -- 70
2017-08-18 05:00:00 14.7 3 Este 8 Este 0 -- -- 63
2017-08-18 04:00:00 15.9 3 Nordeste 5 Nordeste 0 -- -- 59
2017-08-18 03:00:00 17.6 4 Este 5 Este 0 -- -- 54
2017-08-18 02:00:00 19.5 2 Este 4 Oeste 0 -- -- 48
2017-08-18 01:00:00 21.1 0 Calma 5 Norte 0 -- -- 44
2017-08-18 00:00:00 22.8 0 Calma 12 Nordeste 0 -- -- 40
2017-08-17 23:00:00 25.1 9 Nordeste 17 Nordeste 0 -- -- 34
2017-08-17 22:00:00 26.5 0 Calma 14 Oeste 0 -- -- 29
2017-08-17 21:00:00 29.8 12 Noroeste 20 Noroeste 0 -- -- 24
2017-08-17 20:00:00 32.9 14 Oeste 23 Noroeste 0 -- -- 21
2017-08-17 19:00:00 33.6 14 Noroeste 31 Oeste 0 -- -- 21
2017-08-17 18:00:00 33.8 14 Oeste 23 Oeste 0 -- -- 21
2017-08-17 17:00:00 33.9 12 Noroeste 24 Noroeste 0 -- -- 21
2017-08-17 16:00:00 34 5 Sudeste 27 Oeste 0 -- -- 21
2017-08-17 15:00:00 32.3 12 Oeste 25 Oeste 0 -- -- 22
2017-08-17 14:00:00 31.5 7 Sudeste 18 Sudeste 0 -- -- 26
2017-08-17 13:00:00 30.9 3 Este 19 Nordeste 0 -- -- 31
2017-08-17 12:00:00 28 13 Este 24 Este 0 -- -- 36
2017-08-17 11:00:00 25.3 17 Este 23 Este 0 -- -- 37
2017-08-17 10:00:00 21.5 10 Este 13 Este 0 -- -- 49
2017-08-17 09:00:00 15.8 6 Este 10 Este 0 -- -- 66
2017-08-17 08:00:00 11.2 3 Este 8 Este 0 -- -- 83
2017-08-17 07:00:00 11.7 5 Este 9 Este 0 -- -- 81
2017-08-17 06:00:00 12.2 6 Este 8 Este 0 -- -- 79
2017-08-17 05:00:00 13.3 0 Calma 6 Este 0 -- -- 76
2017-08-17 04:00:00 14.8 4 Este 6 Sudeste 0 -- -- 72
2017-08-17 03:00:00 15.8 2 Este 8 Este 0 -- -- 68
2017-08-17 02:00:00 17.7 8 Este 10 Este 0 -- -- 63
2017-08-17 01:00:00 19.6 0 Calma 9 Este 0 -- -- 57
2017-08-17 00:00:00 21.2 7 Este 16 Sudeste 0 -- -- 51
2017-08-16 23:00:00 21.7 8 Este 23 Este 0 -- -- 44
2017-08-16 22:00:00 23.8 9 Noroeste 14 Oeste 0 -- -- 28
2017-08-16 21:00:00 27 8 Noroeste 21 Noroeste 0 -- -- 23
2017-08-16 20:00:00 29.9 14 Noroeste 28 Noroeste 0 -- -- 20
2017-08-16 19:00:00 30.5 17 Noroeste 31 Noroeste 0 -- -- 20
2017-08-16 18:00:00 31 13 Oeste 34 Oeste 0 -- -- 21
2017-08-16 17:00:00 30.4 15 Oeste 31 Noroeste 0 -- -- 22
2017-08-16 16:00:00 29.5 21 Noroeste 42 Oeste 0 -- -- 25
2017-08-16 15:00:00 29.3 18 Noroeste 34 Oeste 0 -- -- 27
2017-08-16 14:00:00 27.3 19 Noroeste 33 Noroeste 0 -- -- 30
2017-08-16 13:00:00 26 17 Noroeste 27 Oeste 0 -- -- 33
2017-08-16 12:00:00 24.2 19 Oeste 27 Oeste 0 -- -- 39
2017-08-16 11:00:00 22.8 5 Sur 14 Oeste 0 -- -- 39
2017-08-16 10:00:00 18.3 3 Este 6 Sudeste 0 -- -- 52
2017-08-16 09:00:00 13.7 0 Calma 4 Este 0 -- -- 66
2017-08-16 08:00:00 11 2 Sudeste 6 Sudeste 0 -- -- 74
2017-08-16 07:00:00 11.2 3 Sudeste 5 Este 0 -- -- 73
2017-08-16 06:00:00 12.6 0 Calma 4 Nordeste 0 -- -- 68
2017-08-16 05:00:00 13.2 0 Calma 4 Este 0 -- -- 62
2017-08-16 04:00:00 13.9 2 Nordeste 5 Este 0 -- -- 60
2017-08-16 03:00:00 14.1 2 Este 6 Este 0 -- -- 56
2017-08-16 02:00:00 14.8 0 Calma 5 Sudeste 0 -- -- 56
2017-08-16 01:00:00 17.2 0 Calma 9 Este 0 -- -- 47
2017-08-16 00:00:00 18.3 2 Sur 5 Sudeste 0 -- -- 46
2017-08-15 23:00:00 22.4 0 Calma 9 Noroeste 0 -- -- 34
2017-08-15 22:00:00 23.8 8 Norte 13 Noroeste 0 -- -- 30
2017-08-15 21:00:00 26.6 10 Noroeste 19 Oeste 0 -- -- 27
2017-08-15 20:00:00 29.8 17 Oeste 36 Oeste 0 -- -- 23
2017-08-15 19:00:00 30.6 25 Oeste 42 Oeste 0 -- -- 22
2017-08-15 18:00:00 31.3 25 Noroeste 44 Oeste 0 -- -- 20
2017-08-15 17:00:00 30.4 25 Oeste 48 Oeste 0 -- -- 23
2017-08-15 16:00:00 31.2 26 Oeste 42 Oeste 0 -- -- 24
2017-08-15 15:00:00 31.2 27 Oeste 40 Oeste 0 -- -- 27
2017-08-15 14:00:00 29.9 15 Oeste 31 Oeste 0 -- -- 30
2017-08-15 13:00:00 30 8 Sudoeste 15 Sudoeste 0 -- -- 31
2017-08-15 12:00:00 28.9 3 Este 13 Este 0 -- -- 35
2017-08-15 11:00:00 25.8 5 Este 14 Este 0 -- -- 41
2017-08-15 10:00:00 22.4 10 Este 18 Este 0 -- -- 52
2017-08-15 09:00:00 19.4 10 Este 16 Este 0 -- -- 62
2017-08-15 08:00:00 16.4 8 Este 15 Este 0 -- -- 72
2017-08-15 07:00:00 15.8 8 Este 15 Este 0 -- -- 74
2017-08-15 06:00:00 15.9 6 Este 13 Este 0 -- -- 73
2017-08-15 05:00:00 16.4 6 Nordeste 15 Este 0 -- -- 69
2017-08-15 04:00:00 17.3 9 Este 12 Este 0 -- -- 64
2017-08-15 03:00:00 17.1 5 Sudoeste 8 Sudoeste 0 -- -- 69
2017-08-15 02:00:00 18 2 Nordeste 12 Sudeste 0 -- -- 64
2017-08-15 01:00:00 19.8 0 Calma 10 Norte 0 -- -- 62
2017-08-15 00:00:00 20.4 9 Nordeste 15 Este 0 -- -- 58
2017-08-14 23:00:00 21 15 Oeste 21 Oeste 0 -- -- 59
2017-08-14 22:00:00 21.4 3 Sur 8 Sudeste 0 -- -- 54
2017-08-14 21:00:00 22.9 4 Sudeste 13 Nordeste 0 -- -- 47
2017-08-14 20:00:00 24.2 12 Nordeste 51 Noroeste 0 -- -- 43
2017-08-14 19:00:00 21.5 44 Noroeste 69 Oeste 1.8 -- -- 55
2017-08-14 18:00:00 31.6 14 Oeste 56 Sudoeste 0 -- -- 22
2017-08-14 17:00:00 31.3 18 Sudoeste 30 Sudoeste 0 -- -- 22
2017-08-14 16:00:00 32 13 Sudoeste 24 Sudoeste 0 -- -- 21
2017-08-14 15:00:00 33 9 Sur 29 Nordeste 0 -- -- 20
2017-08-14 14:00:00 31.5 5 Sudoeste 17 Sudoeste 0 -- -- 21
2017-08-14 13:00:00 30.5 3 Norte 20 Este 0 -- -- 24
2017-08-14 12:00:00 29.4 15 Este 24 Este 0 -- -- 32
2017-08-14 11:00:00 25.8 16 Este 23 Este 0 -- -- 41
2017-08-14 10:00:00 22.8 18 Este 25 Este 0 -- -- 50
2017-08-14 09:00:00 19.2 6 Este 9 Nordeste 0 -- -- 59
2017-08-14 08:00:00 14.9 5 Este 6 Este 0 -- -- 66
2017-08-14 07:00:00 13.7 4 Este 8 Nordeste 0 -- -- 68
2017-08-14 06:00:00 14.9 5 Este 6 Nordeste 0 -- -- 59
2017-08-14 05:00:00 15.2 4 Nordeste 11 Este 0 -- -- 57
2017-08-14 04:00:00 16.2 5 Este 12 Este 0 -- -- 52
2017-08-14 03:00:00 17.5 10 Este 16 Este 0 -- -- 49
2017-08-14 02:00:00 19 8 Este 12 Este 0 -- -- 45
2017-08-14 01:00:00 20 4 Este 13 Nordeste 0 -- -- 43
2017-08-14 00:00:00 22 8 Este 27 Este 0 -- -- 38
2017-08-13 23:00:00 23.2 17 Este 30 Este 0 -- -- 37
2017-08-13 22:00:00 24.8 18 Este 30 Este 0 -- -- 35
2017-08-13 21:00:00 28.8 8 Norte 17 Oeste 0 -- -- 19
2017-08-13 20:00:00 30.7 9 Oeste 27 Oeste 0 -- -- 17
2017-08-13 19:00:00 32.6 8 Noroeste 23 Noroeste 0 -- -- 16
2017-08-13 18:00:00 33.1 4 Sudoeste 25 Sudoeste 0 -- -- 16
2017-08-13 17:00:00 32.4 9 Oeste 27 Oeste 0 -- -- 16
2017-08-13 16:00:00 31.5 11 Oeste 23 Oeste 0 -- -- 17
2017-08-13 15:00:00 31.3 8 Sudoeste 24 Oeste 0 -- -- 19
2017-08-13 14:00:00 29.8 8 Oeste 23 Este 0 -- -- 20
2017-08-13 13:00:00 28.5 8 Este 22 Este 0 -- -- 25
2017-08-13 12:00:00 26.3 15 Este 26 Este 0 -- -- 30
2017-08-13 11:00:00 23.5 18 Este 26 Este 0 -- -- 38
2017-08-13 10:00:00 20.7 17 Este 24 Este 0 -- -- 43
2017-08-13 09:00:00 16.1 13 Este 17 Este 0 -- -- 59
2017-08-13 08:00:00 12.2 9 Este 13 Este 0 -- -- 74
2017-08-13 07:00:00 10.9 6 Este 13 Este 0 -- -- 74
2017-08-13 06:00:00 11.5 11 Este 14 Nordeste 0 -- -- 74
2017-08-13 05:00:00 10.3 6 Este 10 Este 0 -- -- 73
2017-08-13 04:00:00 11.9 5 Este 10 Nordeste 0 -- -- 67
2017-08-13 03:00:00 14.2 8 Este 13 Este 0 -- -- 62
2017-08-13 02:00:00 16 6 Nordeste 12 Este 0 -- -- 55
2017-08-13 01:00:00 17.5 6 Nordeste 12 Este 0 -- -- 47
2017-08-13 00:00:00 19.5 3 Este 15 Este 0 -- -- 37
2017-08-12 23:00:00 20.8 6 Nordeste 17 Este 0 -- -- 29
2017-08-12 22:00:00 22.7 8 Nordeste 29 Este 0 -- -- 26
2017-08-12 21:00:00 26.9 6 Noroeste 13 Oeste 0 -- -- 19
2017-08-12 20:00:00 29.9 12 Oeste 21 Oeste 0 -- -- 14
2017-08-12 19:00:00 30.5 9 Sudoeste 23 Oeste 0 -- -- 15
2017-08-12 18:00:00 30.9 5 Sudoeste 19 Oeste 0 -- -- 13
2017-08-12 17:00:00 29.8 10 Oeste 21 Sudoeste 0 -- -- 13
2017-08-12 16:00:00 29.8 6 Este 17 Oeste 0 -- -- 12
2017-08-12 15:00:00 29.1 4 Sur 21 Sudoeste 0 -- -- 13
2017-08-12 14:00:00 27.3 10 Oeste 19 Oeste 0 -- -- 15
2017-08-12 13:00:00 26.3 7 Sudeste 17 Este 0 -- -- 18
2017-08-12 12:00:00 24.3 8 Este 19 Este 0 -- -- 22
2017-08-12 11:00:00 20.7 11 Este 21 Este 0 -- -- 28
2017-08-12 10:00:00 16.2 8 Este 13 Este 0 -- -- 44
2017-08-12 09:00:00 10.2 5 Nordeste 13 Nordeste 0 -- -- 63
2017-08-12 08:00:00 6.2 3 Este 9 Nordeste 0 -- -- 74
2017-08-12 07:00:00 5.6 6 Nordeste 11 Este 0 -- -- 75
2017-08-12 06:00:00 5.4 2 Nordeste 8 Este 0 -- -- 74
2017-08-12 05:00:00 6.1 3 Este 6 Este 0 -- -- 70
2017-08-12 04:00:00 6.5 4 Este 6 Este 0 -- -- 67
2017-08-12 03:00:00 8.2 3 Sudeste 4 Sudeste 0 -- -- 61
2017-08-12 02:00:00 9.2 4 Sudeste 6 Sudeste 0 -- -- 58
2017-08-12 01:00:00 13.5 0 Calma 6 Sudeste 0 -- -- 50
2017-08-12 00:00:00 15.2 3 Sudeste 14 Este 0 -- -- 43
2017-08-11 23:00:00 16.4 3 Este 12 Sudeste 0 -- -- 37
2017-08-11 22:00:00 19.6 5 Sudeste 23 Norte 0 -- -- 30
2017-08-11 21:00:00 22.6 15 Norte 28 Noroeste 0 -- -- 25
2017-08-11 20:00:00 25.7 20 Noroeste 44 Oeste 0 -- -- 19
2017-08-11 19:00:00 26.3 22 Oeste 39 Oeste 0 -- -- 16
2017-08-11 18:00:00 26.6 14 Oeste 30 Oeste 0 -- -- 17
2017-08-11 17:00:00 25.6 20 Oeste 34 Noroeste 0 -- -- 18
2017-08-11 16:00:00 25 13 Oeste 31 Oeste 0 -- -- 19
2017-08-11 15:00:00 24 10 Noroeste 28 Oeste 0 -- -- 20
2017-08-11 14:00:00 22.1 13 Oeste 33 Oeste 0 -- -- 24
2017-08-11 13:00:00 20.8 6 Oeste 17 Oeste 0 -- -- 28
2017-08-11 12:00:00 18 8 Noroeste 14 Norte 0 -- -- 36
2017-08-11 11:00:00 16 4 Sudoeste 8 Sudoeste 0 -- -- 41
2017-08-11 10:00:00 13.1 4 Sudeste 9 Sudeste 0 -- -- 55
2017-08-11 09:00:00 9.7 5 Este 13 Este 0 -- -- 67
2017-08-11 08:00:00 6 8 Este 13 Este 0 -- -- 78
2017-08-11 07:00:00 5 5 Este 10 Sudeste 0 -- -- 81
2017-08-11 06:00:00 4.8 2 Norte 6 Este 0 -- -- 82
2017-08-11 05:00:00 5 3 Este 5 Sudeste 0 -- -- 80
2017-08-11 04:00:00 5.4 0 Calma 5 Este 0 -- -- 79
2017-08-11 03:00:00 7.3 3 Este 6 Nordeste 0 -- -- 72
2017-08-11 02:00:00 8.8 2 Este 9 Este 0 -- -- 67
2017-08-11 01:00:00 10.8 3 Este 13 Este 0 -- -- 62
2017-08-11 00:00:00 12.2 2 Nordeste 14 Norte 0 -- -- 57
2017-08-10 23:00:00 13.8 5 Norte 15 Norte 0 -- -- 51
2017-08-10 22:00:00 15 4 Noroeste 19 Norte 0 -- -- 45
2017-08-10 21:00:00 18.5 14 Norte 33 Norte 0 -- -- 34
2017-08-10 20:00:00 20.9 23 Norte 35 Noroeste 0 -- -- 35
2017-08-10 19:00:00 23.1 18 Noroeste 33 Noroeste 0 -- -- 28
2017-08-10 18:00:00 23.4 18 Oeste 28 Oeste 0 -- -- 28
2017-08-10 17:00:00 23.3 18 Oeste 35 Sudoeste 0 -- -- 28
2017-08-10 16:00:00 22.4 11 Oeste 28 Sudoeste 0 -- -- 31
2017-08-10 15:00:00 21.7 11 Sur 23 Sudoeste 0 -- -- 32
2017-08-10 14:00:00 20.5 8 Sur 20 Oeste 0 -- -- 34
2017-08-10 13:00:00 18.3 12 Oeste 23 Oeste 0 -- -- 39
2017-08-10 12:00:00 17.5 5 Oeste 13 Noroeste 0 -- -- 40
2017-08-10 11:00:00 15.2 4 Noroeste 10 Nordeste 0 -- -- 45
2017-08-10 10:00:00 11.9 3 Sudeste 9 Sudoeste 0 -- -- 57
2017-08-10 09:00:00 6.7 2 Nordeste 5 Este 0 -- -- 71
2017-08-10 08:00:00 3.2 2 Este 5 Este 0 -- -- 86
2017-08-10 07:00:00 2 0 Calma 7 Este 0 -- -- 86
2017-08-10 06:00:00 2.4 3 Noroeste 9 Este 0 -- -- 86
2017-08-10 05:00:00 2.9 3 Norte 6 Este 0 -- -- 84
2017-08-10 04:00:00 3.3 0 Calma 4 Este 0 -- -- 83
2017-08-10 03:00:00 4.7 0 Calma 4 Este 0 -- -- 78
2017-08-10 02:00:00 5.3 0 Calma 6 Sudeste 0 -- -- 79
2017-08-10 01:00:00 7.8 0 Calma 6 Norte 0 -- -- 70
2017-08-10 00:00:00 9.1 4 Noroeste 10 Nordeste 0 -- -- 63
2017-08-09 23:00:00 11.5 6 Norte 23 Norte 0 -- -- 55
2017-08-09 22:00:00 13.2 13 Norte 23 Norte 0 -- -- 49
2017-08-09 21:00:00 15.7 19 Norte 29 Nordeste 0 -- -- 40
2017-08-09 20:00:00 17.9 14 Nordeste 25 Nordeste 0 -- -- 40
2017-08-09 19:00:00 17.9 14 Nordeste 21 Nordeste 0 -- -- 43
2017-08-09 18:00:00 18.5 13 Norte 23 Este 0 -- -- 43
2017-08-09 17:00:00 19.2 22 Este 31 Este 0 -- -- 44
2017-08-09 16:00:00 20.2 19 Este 35 Este 0 -- -- 42
2017-08-09 15:00:00 22.8 12 Sudoeste 26 Oeste 0 -- -- 32
2017-08-09 14:00:00 21.5 12 Sudoeste 22 Oeste 0 -- -- 32
2017-08-09 13:00:00 20.7 8 Oeste 20 Sudoeste 0 -- -- 37
2017-08-09 12:00:00 19.5 6 Sudeste 14 Este 0 -- -- 43
2017-08-09 11:00:00 17.8 5 Nordeste 20 Este 0 -- -- 49
2017-08-09 10:00:00 14.5 16 Sudeste 25 Este 0 -- -- 63
2017-08-09 09:00:00 12.2 11 Este 19 Este 0 -- -- 72
2017-08-09 08:00:00 9.4 4 Este 10 Este 0 -- -- 85
2017-08-09 07:00:00 7.9 4 Este 9 Este 0 -- -- 88
2017-08-09 06:00:00 8.8 5 Este 15 Este 0 -- -- 85
2017-08-09 05:00:00 9.6 10 Este 15 Este 0 -- -- 82
2017-08-09 04:00:00 10.1 10 Este 15 Este 0 -- -- 79
2017-08-09 03:00:00 10.8 6 Este 14 Sudeste 0 -- -- 75
2017-08-09 02:00:00 12.3 10 Sudeste 16 Este 0 -- -- 70
2017-08-09 01:00:00 13.2 9 Este 21 Este 0 -- -- 66
2017-08-09 00:00:00 14.2 13 Sudeste 21 Este 0 -- -- 62
2017-08-08 23:00:00 15.5 10 Este 33 Este 0 -- -- 58
2017-08-08 22:00:00 17.9 8 Noroeste 14 Oeste 0 -- -- 33
2017-08-08 21:00:00 21.5 12 Oeste 23 Noroeste 0 -- -- 27
2017-08-08 20:00:00 23.7 12 Oeste 27 Oeste 0 -- -- 24
2017-08-08 19:00:00 23.9 15 Noroeste 30 Oeste 0 -- -- 23
2017-08-08 18:00:00 24.2 16 Oeste 39 Oeste 0 -- -- 23
2017-08-08 17:00:00 23.7 23 Oeste 41 Oeste 0 -- -- 26
2017-08-08 16:00:00 23 20 Noroeste 38 Oeste 0 -- -- 27
2017-08-08 15:00:00 22.3 22 Oeste 37 Oeste 0 -- -- 33
2017-08-08 14:00:00 21.7 15 Oeste 31 Sudoeste 0 -- -- 35
2017-08-08 13:00:00 20.5 13 Oeste 25 Oeste 0 -- -- 44
2017-08-08 12:00:00 19.3 8 Sur 15 Sudoeste 0 -- -- 55
2017-08-08 11:00:00 17.4 6 Sudoeste 14 Sur 0 -- -- 62
2017-08-08 10:00:00 14.7 8 Oeste 23 Oeste 0 -- -- 72
2017-08-08 09:00:00 13 20 Oeste 30 Oeste 0 -- -- 80
2017-08-08 08:00:00 12.1 21 Oeste 26 Oeste 0 -- -- 84
2017-08-08 07:00:00 11.9 15 Oeste 20 Oeste 0 -- -- 85
2017-08-08 06:00:00 12.7 18 Oeste 29 Oeste 0 -- -- 84
2017-08-08 05:00:00 13.1 22 Oeste 31 Oeste 0 -- -- 84
2017-08-08 04:00:00 14 19 Oeste 41 Oeste 0 -- -- 83
2017-08-08 03:00:00 15.8 24 Oeste 36 Oeste 0 -- -- 77
2017-08-08 02:00:00 17.6 14 Oeste 22 Oeste 0 -- -- 59
2017-08-08 01:00:00 19.1 10 Sudoeste 20 Oeste 0 -- -- 32
2017-08-08 00:00:00 21.6 12 Oeste 20 Oeste 0 -- -- 29
2017-08-07 23:00:00 23.3 18 Oeste 23 Oeste 0 -- -- 26
2017-08-07 22:00:00 25.2 14 Noroeste 25 Noroeste 0 -- -- 22
2017-08-07 21:00:00 26.7 19 Noroeste 28 Noroeste 0 -- -- 22
2017-08-07 20:00:00 28.3 21 Oeste 44 Oeste 0 -- -- 19
2017-08-07 19:00:00 29.6 26 Noroeste 40 Oeste 0 -- -- 19
2017-08-07 18:00:00 31.5 27 Oeste 46 Oeste 0 -- -- 16
2017-08-07 17:00:00 31.9 30 Oeste 48 Oeste 0 -- -- 13
2017-08-07 16:00:00 31.7 33 Oeste 57 Oeste 0 -- -- 10
2017-08-07 15:00:00 31.2 34 Oeste 52 Sudoeste 0 -- -- 9
2017-08-07 14:00:00 31.6 33 Oeste 61 Oeste 0 -- -- 10
2017-08-07 13:00:00 30.5 25 Sudoeste 38 Oeste 0 -- -- 21
2017-08-07 12:00:00 29.7 5 Sur 16 Este 0 -- -- 35
2017-08-07 11:00:00 26.4 10 Este 17 Este 0 -- -- 48
2017-08-07 10:00:00 22.9 10 Este 17 Este 0 -- -- 59
2017-08-07 09:00:00 20 9 Este 14 Este 0 -- -- 67
2017-08-07 08:00:00 17.5 6 Este 13 Este 0 -- -- 72
2017-08-07 07:00:00 16.7 5 Este 17 Este 0 -- -- 73
2017-08-07 06:00:00 17.4 11 Este 17 Este 0 -- -- 69
2017-08-07 05:00:00 17.2 6 Este 12 Este 0 -- -- 69
2017-08-07 04:00:00 16.7 8 Este 16 Este 0 -- -- 69
2017-08-07 03:00:00 17.2 10 Este 14 Este 0 -- -- 66
2017-08-07 02:00:00 17.8 4 Este 20 Este 0 -- -- 63
2017-08-07 01:00:00 19.1 15 Este 26 Este 0 -- -- 58
2017-08-07 00:00:00 20 15 Este 29 Este 0 -- -- 55
2017-08-06 23:00:00 21.3 18 Este 32 Este 0 -- -- 51
2017-08-06 22:00:00 23 21 Este 37 Este 0 -- -- 45
2017-08-06 21:00:00 26.1 25 Este 43 Este 0 -- -- 38
2017-08-06 20:00:00 28.6 28 Este 41 Este 0 -- -- 35
2017-08-06 19:00:00 30.1 27 Este 41 Este 0 -- -- 32
2017-08-06 18:00:00 31 24 Este 42 Este 0 -- -- 32
2017-08-06 17:00:00 31.1 19 Este 36 Este 0 -- -- 31
2017-08-06 16:00:00 29.1 22 Este 38 Este 0 -- -- 36
2017-08-06 15:00:00 27.5 23 Este 36 Este 0 -- -- 39
2017-08-06 14:00:00 26.2 21 Sudeste 35 Este 0 -- -- 41
2017-08-06 13:00:00 25.1 21 Sudeste 38 Este 0 -- -- 44
2017-08-06 12:00:00 23.1 24 Este 36 Este 0 -- -- 48
2017-08-06 11:00:00 21.2 26 Este 36 Este 0 -- -- 52
2017-08-06 10:00:00 19.4 17 Este 28 Sudeste 0 -- -- 58
2017-08-06 09:00:00 16.5 13 Este 19 Sudeste 0 -- -- 70
2017-08-06 08:00:00 13.5 3 Este 4 Sudeste 0 -- -- 80
2017-08-06 07:00:00 12.9 3 Nordeste 4 Nordeste 0 -- -- 84
2017-08-06 06:00:00 14.3 0 Calma 4 Nordeste 0 -- -- 79
2017-08-06 05:00:00 15.4 3 Este 6 Este 0 -- -- 72
2017-08-06 04:00:00 16.4 5 Este 16 Este 0 -- -- 69
2017-08-06 03:00:00 17.8 12 Este 24 Sudeste 0 -- -- 64
2017-08-06 02:00:00 18.8 13 Este 22 Este 0 -- -- 63
2017-08-06 01:00:00 19.9 11 Este 16 Sudeste 0 -- -- 61
2017-08-06 00:00:00 20.8 8 Este 23 Este 0 -- -- 61
2017-08-05 23:00:00 22.5 13 Este 20 Este 0 -- -- 58
2017-08-05 22:00:00 24.4 11 Este 22 Este 0 -- -- 53
2017-08-05 21:00:00 26.2 14 Este 33 Este 0 -- -- 49
2017-08-05 20:00:00 28 21 Nordeste 36 Este 0 -- -- 46
2017-08-05 19:00:00 34 17 Oeste 27 Oeste 0 -- -- 25
2017-08-05 18:00:00 35.5 15 Sudoeste 33 Oeste 0 -- -- 23
2017-08-05 17:00:00 33.9 18 Oeste 44 Noroeste 0 -- -- 24
2017-08-05 16:00:00 34.3 6 Sudoeste 34 Sudoeste 0 -- -- 23
2017-08-05 15:00:00 34.3 15 Sudoeste 32 Sudoeste 0 -- -- 22
2017-08-05 14:00:00 32.3 10 Oeste 26 Oeste 0 -- -- 25
2017-08-05 13:00:00 31.8 9 Noroeste 19 Oeste 0 -- -- 23
2017-08-05 12:00:00 29.3 11 Noroeste 25 Noroeste 0 -- -- 33
2017-08-05 11:00:00 26.8 9 Noroeste 16 Noroeste 0 -- -- 37
2017-08-05 10:00:00 24.3 5 Este 8 Este 0 -- -- 51
2017-08-05 09:00:00 19.3 2 Este 6 Nordeste 0 -- -- 69
2017-08-05 08:00:00 15.4 3 Este 6 Sudeste 0 -- -- 82
2017-08-05 07:00:00 14.9 0 Calma 6 Sudeste 0 -- -- 85
2017-08-05 06:00:00 16 3 Sudeste 4 Sudeste 0 -- -- 82
2017-08-05 05:00:00 17.5 2 Este 6 Este 0 -- -- 77
2017-08-05 04:00:00 18.4 4 Nordeste 6 Nordeste 0 -- -- 73
2017-08-05 03:00:00 20.9 0 Calma 7 Este 0 -- -- 65
2017-08-05 02:00:00 21.9 5 Este 10 Este 0 -- -- 60
2017-08-05 01:00:00 22.7 6 Este 12 Sudeste 0 -- -- 55
2017-08-05 00:00:00 24 3 Nordeste 15 Nordeste 0 -- -- 45
2017-08-04 23:00:00 25.6 2 Este 11 Nordeste 0 -- -- 38
2017-08-04 22:00:00 28 8 Noroeste 14 Noroeste 0 -- -- 32
2017-08-04 21:00:00 31.7 9 Noroeste 21 Noroeste 0 -- -- 27
2017-08-04 20:00:00 33.2 18 Noroeste 26 Oeste 0 -- -- 24
2017-08-04 19:00:00 34 15 Oeste 30 Noroeste 0 -- -- 23
2017-08-04 18:00:00 33.9 17 Noroeste 36 Oeste 0 -- -- 27
2017-08-04 17:00:00 32.7 17 Noroeste 36 Oeste 0 -- -- 29
2017-08-04 16:00:00 32.3 15 Oeste 38 Oeste 0 -- -- 31
2017-08-04 15:00:00 31.3 20 Oeste 35 Oeste 0 -- -- 33
2017-08-04 14:00:00 30.4 13 Oeste 32 Oeste 0 -- -- 36
2017-08-04 13:00:00 29.1 10 Oeste 24 Oeste 0 -- -- 40
2017-08-04 12:00:00 27.5 15 Oeste 29 Oeste 0 -- -- 42
2017-08-04 11:00:00 25.5 19 Oeste 31 Oeste 0 -- -- 47
2017-08-04 10:00:00 23.7 15 Oeste 26 Oeste 0 -- -- 51
2017-08-04 09:00:00 20.5 2 Este 5 Sudeste 0 -- -- 57
2017-08-04 08:00:00 15.3 2 Sudeste 6 Oeste 0 -- -- 67
2017-08-04 07:00:00 15.5 4 Sudoeste 9 Oeste 0 -- -- 63
2017-08-04 06:00:00 15.7 0 Calma 6 Sudeste 0 -- -- 62
2017-08-04 05:00:00 14.9 2 Sudeste 7 Sudeste 0 -- -- 61
2017-08-04 04:00:00 15.1 3 Sudeste 4 Sudeste 0 -- -- 60
2017-08-04 03:00:00 15.6 0 Calma 4 Este 0 -- -- 59
2017-08-04 02:00:00 17.6 2 Sur 5 Sudeste 0 -- -- 51
2017-08-04 01:00:00 18.6 0 Calma 5 Sur 0 -- -- 49
2017-08-04 00:00:00 21.8 2 Sudeste 5 Este 0 -- -- 38
2017-08-03 23:00:00 25.1 3 Oeste 14 Noroeste 0 -- -- 31
2017-08-03 22:00:00 26.7 9 Noroeste 19 Oeste 0 -- -- 27
2017-08-03 21:00:00 30.5 14 Noroeste 32 Oeste 0 -- -- 21
2017-08-03 20:00:00 32.4 20 Noroeste 33 Oeste 0 -- -- 19
2017-08-03 19:00:00 33.5 15 Noroeste 33 Oeste 0 -- -- 18
2017-08-03 18:00:00 33.6 17 Oeste 36 Oeste 0 -- -- 18
2017-08-03 17:00:00 33.6 16 Oeste 32 Oeste 0 -- -- 17
2017-08-03 16:00:00 33 11 Oeste 32 Oeste 0 -- -- 18
2017-08-03 15:00:00 31.9 19 Oeste 32 Oeste 0 -- -- 19
2017-08-03 14:00:00 30.7 11 Oeste 24 Oeste 0 -- -- 20
2017-08-03 13:00:00 29.5 12 Oeste 22 Oeste 0 -- -- 21
2017-08-03 12:00:00 27.8 12 Oeste 19 Oeste 0 -- -- 24
2017-08-03 11:00:00 26.9 3 Sur 10 Oeste 0 -- -- 27
2017-08-03 10:00:00 21.4 2 Este 8 Este 0 -- -- 38
2017-08-03 09:00:00 15.3 2 Este 7 Este 0 -- -- 53
2017-08-03 08:00:00 11.6 3 Este 9 Este 0 -- -- 64
2017-08-03 07:00:00 10.1 2 Sudeste 6 Este 0 -- -- 69
2017-08-03 06:00:00 11.1 3 Este 6 Este 0 -- -- 66
2017-08-03 05:00:00 11.7 0 Calma 4 Sudeste 0 -- -- 65
2017-08-03 04:00:00 12.5 0 Calma 5 Sudeste 0 -- -- 63
2017-08-03 03:00:00 14 3 Este 6 Nordeste 0 -- -- 58
2017-08-03 02:00:00 15.5 0 Calma 6 Sudeste 0 -- -- 56
2017-08-03 01:00:00 19.2 0 Calma 11 Sudoeste 0 -- -- 40
2017-08-03 00:00:00 21.6 3 Sur 14 Oeste 0 -- -- 34
2017-08-02 23:00:00 24 11 Oeste 14 Oeste 0 -- -- 30
2017-08-02 22:00:00 26.2 10 Noroeste 18 Noroeste 0 -- -- 27
2017-08-02 21:00:00 29.8 11 Noroeste 25 Noroeste 0 -- -- 23
2017-08-02 20:00:00 31.8 18 Oeste 31 Oeste 0 -- -- 22
2017-08-02 19:00:00 32.6 17 Oeste 27 Oeste 0 -- -- 21
2017-08-02 18:00:00 32.7 14 Sudoeste 27 Oeste 0 -- -- 21
2017-08-02 17:00:00 32.7 12 Sur 28 Norte 0 -- -- 22
2017-08-02 16:00:00 32.6 10 Oeste 26 Noroeste 0 -- -- 22
2017-08-02 15:00:00 33.2 9 Sudeste 18 Nordeste 0 -- -- 20
2017-08-02 14:00:00 31.9 6 Norte 17 Sudeste 0 -- -- 24
2017-08-02 13:00:00 30.8 4 Este 18 Este 0 -- -- 31
2017-08-02 12:00:00 27.5 8 Este 16 Este 0 -- -- 35
2017-08-02 11:00:00 25.4 3 Este 9 Nordeste 0 -- -- 28
2017-08-02 10:00:00 20.9 4 Este 9 Este 0 -- -- 42
2017-08-02 09:00:00 16.2 5 Este 12 Oeste 0 -- -- 59
2017-08-02 08:00:00 11.1 3 Este 7 Este 0 -- -- 75
2017-08-02 07:00:00 10.1 3 Nordeste 7 Este 0 -- -- 74
2017-08-02 06:00:00 11.1 0 Calma 6 Este 0 -- -- 68
2017-08-02 05:00:00 11.9 3 Nordeste 6 Este 0 -- -- 64
2017-08-02 04:00:00 12.7 3 Nordeste 5 Este 0 -- -- 61
2017-08-02 03:00:00 13.5 0 Calma 5 Este 0 -- -- 57
2017-08-02 02:00:00 15.1 2 Norte 10 Este 0 -- -- 51
2017-08-02 01:00:00 15.8 0 Calma 6 Este 0 -- -- 51
2017-08-02 00:00:00 19.3 2 Sudeste 8 Este 0 -- -- 40
2017-08-01 23:00:00 22 9 Oeste 12 Oeste 0 -- -- 33
2017-08-01 22:00:00 24.6 10 Oeste 15 Noroeste 0 -- -- 28
2017-08-01 21:00:00 27 12 Noroeste 24 Oeste 0 -- -- 24
2017-08-01 20:00:00 30.2 14 Oeste 31 Oeste 0 -- -- 21
2017-08-01 19:00:00 30.9 15 Oeste 31 Oeste 0 -- -- 20
2017-08-01 18:00:00 31 17 Noroeste 31 Sudoeste 0 -- -- 20
2017-08-01 17:00:00 31.4 15 Sudoeste 30 Sudoeste 0 -- -- 18
2017-08-01 16:00:00 30.6 13 Sudoeste 22 Sudoeste 0 -- -- 21
2017-08-01 15:00:00 29.9 9 Oeste 25 Oeste 0 -- -- 21
2017-08-01 14:00:00 29.5 7 Sur 17 Sudoeste 0 -- -- 24
2017-08-01 13:00:00 27.1 8 Sudoeste 21 Sur 0 -- -- 27
2017-08-01 12:00:00 25 6 Sur 13 Este 0 -- -- 37
2017-08-01 11:00:00 22.7 4 Nordeste 9 Nordeste 0 -- -- 44
2017-08-01 10:00:00 19.8 3 Sudeste 6 Este 0 -- -- 60
2017-08-01 09:00:00 16.1 0 Calma 5 Sudeste 0 -- -- 72
2017-08-01 08:00:00 14.4 3 Sudeste 5 Este 0 -- -- 82
2017-08-01 07:00:00 15.7 0 Calma 8 Oeste 0 -- -- 78
2017-08-01 06:00:00 16.7 2 Sudeste 5 Noroeste 0 -- -- 73
2017-08-01 05:00:00 17.4 6 Oeste 10 Noroeste 0 -- -- 71
2017-08-01 04:00:00 18.2 2 Norte 13 Oeste 0 -- -- 66
2017-08-01 03:00:00 18.9 9 Oeste 18 Oeste 0 -- -- 60
2017-08-01 02:00:00 19.6 13 Oeste 24 Oeste 0 -- -- 56
2017-08-01 01:00:00 20.2 13 Oeste 19 Sudoeste 0 -- -- 48
2017-08-01 00:00:00 21.3 14 Oeste 19 Noroeste 0 -- -- 34
2017-07-31 23:00:00 22.3 11 Oeste 21 Oeste 0 -- -- 23
2017-07-31 22:00:00 24.2 15 Noroeste 27 Noroeste 0 -- -- 20
2017-07-31 21:00:00 26.2 21 Noroeste 28 Oeste 0 -- -- 20
2017-07-31 20:00:00 27.9 23 Noroeste 40 Oeste 0 -- -- 22
2017-07-31 19:00:00 30.1 24 Noroeste 33 Noroeste 0 -- -- 21
2017-07-31 18:00:00 31.3 15 Noroeste 33 Noroeste 0 -- -- 20
2017-07-31 17:00:00 31.2 18 Oeste 35 Noroeste 0 -- -- 20
2017-07-31 16:00:00 31.1 21 Oeste 40 Oeste 0 -- -- 23
2017-07-31 15:00:00 29.8 14 Noroeste 41 Oeste 0 -- -- 25
2017-07-31 14:00:00 30 18 Oeste 38 Sudoeste 0 -- -- 25
2017-07-31 13:00:00 29.3 17 Oeste 29 Oeste 0 -- -- 24
2017-07-31 12:00:00 27.4 5 Norte 14 Nordeste 0 -- -- 29
2017-07-31 11:00:00 24.8 4 Sudeste 12 Este 0 -- -- 36
2017-07-31 10:00:00 21.1 3 Este 7 Este 0 -- -- 46
2017-07-31 09:00:00 16 4 Este 7 Este 0 -- -- 53
2017-07-31 08:00:00 11.5 0 Calma 5 Sudeste 0 -- -- 66
2017-07-31 07:00:00 11.2 0 Calma 6 Este 0 -- -- 61
2017-07-31 06:00:00 11.7 5 Este 8 Este 0 -- -- 62
2017-07-31 05:00:00 11.5 2 Este 8 Este 0 -- -- 63
2017-07-31 04:00:00 11.9 4 Norte 10 Nordeste 0 -- -- 63
2017-07-31 03:00:00 13.4 2 Este 6 Nordeste 0 -- -- 57
2017-07-31 02:00:00 14.8 2 Sudeste 5 Sudeste 0 -- -- 57
2017-07-31 01:00:00 16.7 0 Calma 7 Sudeste 0 -- -- 48
2017-07-31 00:00:00 18.7 4 Sudeste 8 Sudeste 0 -- -- 45
2017-07-30 23:00:00 23 3 Noroeste 11 Noroeste 0 -- -- 30
2017-07-30 22:00:00 25.1 9 Noroeste 12 Noroeste 0 -- -- 27
2017-07-30 21:00:00 28.5 10 Noroeste 30 Oeste 0 -- -- 23
2017-07-30 20:00:00 30.8 24 Noroeste 40 Oeste 0 -- -- 20
2017-07-30 19:00:00 31.8 31 Oeste 44 Oeste 0 -- -- 19
2017-07-30 18:00:00 32.6 30 Oeste 46 Oeste 0 -- -- 20
2017-07-30 17:00:00 32.8 22 Oeste 50 Oeste 0 -- -- 21
2017-07-30 16:00:00 31.9 20 Noroeste 43 Oeste 0 -- -- 22
2017-07-30 15:00:00 31.5 14 Oeste 35 Sudoeste 0 -- -- 24
2017-07-30 14:00:00 29.3 12 Noroeste 25 Oeste 0 -- -- 29
2017-07-30 13:00:00 27.7 8 Oeste 22 Oeste 0 -- -- 31
2017-07-30 12:00:00 26 12 Oeste 22 Oeste 0 -- -- 33
2017-07-30 11:00:00 24.3 11 Oeste 19 Oeste 0 -- -- 37
2017-07-30 10:00:00 21.4 4 Sudeste 10 Este 0 -- -- 44
2017-07-30 09:00:00 16.1 3 Este 6 Este 0 -- -- 55
2017-07-30 08:00:00 12.6 3 Sudeste 9 Sudeste 0 -- -- 67
2017-07-30 07:00:00 11.8 2 Este 4 Sudeste 0 -- -- 68
2017-07-30 06:00:00 12.3 3 Sudeste 5 Este 0 -- -- 68
2017-07-30 05:00:00 14 3 Este 4 Este 0 -- -- 58
2017-07-30 04:00:00 14.1 2 Sudeste 5 Sudeste 0 -- -- 57
2017-07-30 03:00:00 15.9 0 Calma 4 Norte 0 -- -- 51
2017-07-30 02:00:00 15.9 2 Sudeste 5 Sur 0 -- -- 54
2017-07-30 01:00:00 17.3 0 Calma 5 Sur 0 -- -- 49
2017-07-30 00:00:00 19.6 0 Calma 8 Oeste 0 -- -- 42
2017-07-29 23:00:00 23.3 8 Oeste 10 Oeste 0 -- -- 30
2017-07-29 22:00:00 26.8 4 Oeste 14 Oeste 0 -- -- 24
2017-07-29 21:00:00 29.6 13 Oeste 30 Oeste 0 -- -- 21
2017-07-29 20:00:00 31.6 18 Oeste 32 Oeste 0 -- -- 20
2017-07-29 19:00:00 32 26 Oeste 38 Oeste 0 -- -- 20
2017-07-29 18:00:00 32 23 Noroeste 40 Oeste 0 -- -- 21
2017-07-29 17:00:00 32.2 26 Oeste 44 Noroeste 0 -- -- 20
2017-07-29 16:00:00 32 25 Oeste 41 Oeste 0 -- -- 21
2017-07-29 15:00:00 30.9 24 Oeste 42 Oeste 0 -- -- 27
2017-07-29 14:00:00 30.3 19 Oeste 41 Oeste 0 -- -- 29
2017-07-29 13:00:00 27.9 19 Oeste 31 Oeste 0 -- -- 34
2017-07-29 12:00:00 26.9 13 Noroeste 26 Noroeste 0 -- -- 34
2017-07-29 11:00:00 25.3 9 Oeste 19 Sudoeste 0 -- -- 35
2017-07-29 10:00:00 23.2 16 Oeste 21 Oeste 0 -- -- 40
2017-07-29 09:00:00 17.7 4 Sudeste 6 Sudeste 0 -- -- 64
2017-07-29 08:00:00 14 3 Este 8 Este 0 -- -- 78
2017-07-29 07:00:00 13.1 3 Sudeste 5 Sudeste 0 -- -- 80
2017-07-29 06:00:00 13.6 0 Calma 9 Sudoeste 0 -- -- 77
2017-07-29 05:00:00 14.8 2 Sudeste 6 Este 0 -- -- 69
2017-07-29 04:00:00 16.2 2 Este 5 Sudeste 0 -- -- 64
2017-07-29 03:00:00 17.9 3 Este 5 Sudeste 0 -- -- 54
2017-07-29 02:00:00 19 0 Calma 4 Sudeste 0 -- -- 49
2017-07-29 01:00:00 20 3 Norte 11 Nordeste 0 -- -- 46
2017-07-29 00:00:00 21.4 2 Este 8 Este 0 -- -- 44
2017-07-28 23:00:00 24.9 7 Noroeste 12 Noroeste 0 -- -- 35
2017-07-28 22:00:00 26.8 9 Noroeste 19 Noroeste 0 -- -- 33
2017-07-28 21:00:00 30.7 16 Oeste 35 Oeste 0 -- -- 20
2017-07-28 20:00:00 32.3 21 Oeste 36 Oeste 0 -- -- 17
2017-07-28 19:00:00 33 19 Noroeste 35 Noroeste 0 -- -- 17
2017-07-28 18:00:00 33.4 18 Oeste 37 Noroeste 0 -- -- 18
2017-07-28 17:00:00 32.5 26 Noroeste 39 Noroeste 0 -- -- 21
2017-07-28 16:00:00 31.4 22 Noroeste 32 Noroeste 0 -- -- 24
2017-07-28 15:00:00 30.9 17 Oeste 35 Oeste 0 -- -- 26
2017-07-28 14:00:00 29.1 17 Noroeste 31 Oeste 0 -- -- 32
2017-07-28 13:00:00 28.1 17 Oeste 33 Oeste 0 -- -- 35
2017-07-28 12:00:00 26 15 Oeste 27 Oeste 0 -- -- 45
2017-07-28 11:00:00 23.9 9 Oeste 21 Oeste 0 -- -- 50
2017-07-28 10:00:00 21.8 12 Oeste 20 Oeste 0 -- -- 53
2017-07-28 09:00:00 15.8 3 Este 8 Este 0 -- -- 59
2017-07-28 08:00:00 12.7 3 Nordeste 6 Nordeste 0 -- -- 66
2017-07-28 07:00:00 10.9 2 Sudeste 6 Sudeste 0 -- -- 69
2017-07-28 06:00:00 11.7 3 Nordeste 6 Este 0 -- -- 64
2017-07-28 05:00:00 12.2 4 Sudeste 6 Sudeste 0 -- -- 58
2017-07-28 04:00:00 12.7 3 Este 7 Sudeste 0 -- -- 57
2017-07-28 03:00:00 14.5 0 Calma 5 Sudeste 0 -- -- 48
2017-07-28 02:00:00 16.6 2 Sudeste 10 Este 0 -- -- 39
2017-07-28 01:00:00 16.3 4 Norte 9 Sudeste 0 -- -- 41
2017-07-28 00:00:00 18.7 3 Sudeste 13 Oeste 0 -- -- 36
2017-07-27 23:00:00 25.8 11 Noroeste 14 Noroeste 0 -- -- 21
2017-07-27 22:00:00 26.4 9 Noroeste 20 Noroeste 0 -- -- 20
2017-07-27 21:00:00 30.7 12 Noroeste 28 Oeste 0 -- -- 15
2017-07-27 20:00:00 32.4 21 Oeste 37 Oeste 0 -- -- 15
2017-07-27 19:00:00 32.9 25 Oeste 41 Oeste 0 -- -- 15
2017-07-27 18:00:00 32.9 23 Oeste 47 Oeste 0 -- -- 17
2017-07-27 17:00:00 32.7 24 Oeste 46 Oeste 0 -- -- 17
2017-07-27 16:00:00 31.8 27 Oeste 43 Oeste 0 -- -- 19
2017-07-27 15:00:00 31.4 28 Oeste 39 Oeste 0 -- -- 20
2017-07-27 14:00:00 30 19 Oeste 46 Noroeste 0 -- -- 25
2017-07-27 13:00:00 28.9 18 Oeste 35 Oeste 0 -- -- 26
2017-07-27 12:00:00 27.3 14 Oeste 23 Oeste 0 -- -- 30
2017-07-27 11:00:00 25.3 9 Sudoeste 22 Oeste 0 -- -- 37
2017-07-27 10:00:00 21.4 4 Sudeste 8 Este 0 -- -- 52
2017-07-27 09:00:00 16.8 4 Este 6 Nordeste 0 -- -- 68
2017-07-27 08:00:00 13.1 0 Calma 4 Sudeste 0 -- -- 80
2017-07-27 07:00:00 10.9 3 Sudeste 5 Sudeste 0 -- -- 84
2017-07-27 06:00:00 12.7 3 Este 6 Este 0 -- -- 80
2017-07-27 05:00:00 12.6 3 Este 9 Nordeste 0 -- -- 75
2017-07-27 04:00:00 13.3 3 Este 8 Nordeste 0 -- -- 74
2017-07-27 03:00:00 14 4 Este 8 Este 0 -- -- 68
2017-07-27 02:00:00 15.5 3 Este 6 Sudeste 0 -- -- 66
2017-07-27 01:00:00 18.7 2 Este 9 Nordeste 0 -- -- 54
2017-07-27 00:00:00 19.4 4 Norte 15 Este 0 -- -- 47
2017-07-26 23:00:00 22.9 9 Noroeste 13 Noroeste 0 -- -- 34
2017-07-26 22:00:00 24 9 Noroeste 14 Noroeste 0 -- -- 33
2017-07-26 21:00:00 26.9 10 Oeste 24 Oeste 0 -- -- 28
2017-07-26 20:00:00 29 14 Oeste 30 Oeste 0 -- -- 25
2017-07-26 19:00:00 29.3 19 Oeste 45 Oeste 0 -- -- 23
2017-07-26 18:00:00 29.2 17 Oeste 36 Oeste 0 -- -- 26
2017-07-26 17:00:00 28.7 20 Oeste 34 Oeste 0 -- -- 30
2017-07-26 16:00:00 28.2 17 Noroeste 35 Noroeste 0 -- -- 32
2017-07-26 15:00:00 27.5 19 Oeste 36 Oeste 0 -- -- 33
2017-07-26 14:00:00 25.6 16 Oeste 27 Oeste 0 -- -- 37
2017-07-26 13:00:00 24.5 13 Noroeste 30 Oeste 0 -- -- 38
2017-07-26 12:00:00 23 11 Oeste 24 Noroeste 0 -- -- 40
2017-07-26 11:00:00 20.4 8 Oeste 17 Noroeste 0 -- -- 43
2017-07-26 10:00:00 17.5 4 Sudeste 8 Este 0 -- -- 50
2017-07-26 09:00:00 12.5 4 Este 8 Este 0 -- -- 65
2017-07-26 08:00:00 9 5 Este 8 Nordeste 0 -- -- 75
2017-07-26 07:00:00 7.1 2 Este 4 Este 0 -- -- 82
2017-07-26 06:00:00 7.9 2 Nordeste 5 Este 0 -- -- 78
2017-07-26 05:00:00 8.5 0 Calma 4 Sudeste 0 -- -- 75
2017-07-26 04:00:00 9 0 Calma 5 Sudeste 0 -- -- 72
2017-07-26 03:00:00 11.4 0 Calma 9 Nordeste 0 -- -- 63
2017-07-26 02:00:00 12.2 0 Calma 8 Este 0 -- -- 60
2017-07-26 01:00:00 14.1 3 Norte 13 Norte 0 -- -- 54
2017-07-26 00:00:00 16.7 10 Norte 23 Norte 0 -- -- 44
2017-07-25 23:00:00 17.9 10 Norte 18 Noroeste 0 -- -- 43
2017-07-25 22:00:00 19.6 12 Noroeste 24 Noroeste 0 -- -- 39
2017-07-25 21:00:00 22.8 13 Noroeste 32 Noroeste 0 -- -- 28
2017-07-25 20:00:00 25.3 19 Noroeste 31 Noroeste 0 -- -- 24
2017-07-25 19:00:00 25.9 18 Norte 30 Noroeste 0 -- -- 24
2017-07-25 18:00:00 27 16 Noroeste 35 Oeste 0 -- -- 24
2017-07-25 17:00:00 26.3 15 Noroeste 31 Oeste 0 -- -- 24
2017-07-25 16:00:00 25.7 12 Oeste 32 Oeste 0 -- -- 29
2017-07-25 15:00:00 24.2 15 Noroeste 29 Oeste 0 -- -- 33
2017-07-25 14:00:00 23.1 15 Oeste 31 Este 0 -- -- 36
2017-07-25 13:00:00 22.3 6 Sur 17 Oeste 0 -- -- 39
2017-07-25 12:00:00 19.8 9 Noroeste 19 Nordeste 0 -- -- 47
2017-07-25 11:00:00 17.7 4 Noroeste 19 Oeste 0 -- -- 56
2017-07-25 10:00:00 16.3 5 Nordeste 10 Nordeste 0 -- -- 58
2017-07-25 09:00:00 12.3 5 Este 9 Este 0 -- -- 76
2017-07-25 08:00:00 8.8 2 Este 4 Este 0 -- -- 87
2017-07-25 07:00:00 7.4 0 Calma 4 Sur 0 -- -- 92
2017-07-25 06:00:00 8.9 0 Calma 4 Sudeste 0 -- -- 90
2017-07-25 05:00:00 9.9 0 Calma 4 Sudeste 0 -- -- 89
2017-07-25 04:00:00 10.6 0 Calma 5 Sudeste 0 -- -- 84
2017-07-25 03:00:00 12 0 Calma 6 Este 0 -- -- 81
2017-07-25 02:00:00 13.5 3 Nordeste 10 Este 0 -- -- 75
2017-07-25 01:00:00 15.3 5 Sudeste 10 Este 0 -- -- 68
2017-07-25 00:00:00 16 6 Este 15 Este 0 -- -- 66
2017-07-24 23:00:00 17.6 7 Este 17 Nordeste 0 -- -- 58
2017-07-24 22:00:00 19.6 13 Nordeste 23 Norte 0 -- -- 51
2017-07-24 21:00:00 22.4 15 Nordeste 27 Norte 0 -- -- 43
2017-07-24 20:00:00 24.5 18 Norte 30 Noroeste 0 -- -- 36
2017-07-24 19:00:00 25.6 18 Norte 35 Norte 0 -- -- 31
2017-07-24 18:00:00 26.5 21 Noroeste 38 Norte 0 -- -- 27
2017-07-24 17:00:00 27.1 16 Norte 37 Norte 0 -- -- 28
2017-07-24 16:00:00 26.2 12 Noroeste 31 Noroeste 0 -- -- 29
2017-07-24 15:00:00 25.8 19 Noroeste 35 Noroeste 0 -- -- 27
2017-07-24 14:00:00 25.1 14 Noroeste 30 Noroeste 0 -- -- 32
2017-07-24 13:00:00 23.7 18 Noroeste 35 Norte 0 -- -- 38
2017-07-24 12:00:00 22.9 15 Noroeste 30 Noroeste 0 -- -- 42
2017-07-24 11:00:00 21.2 12 Oeste 24 Nordeste 0 -- -- 52
2017-07-24 10:00:00 18.1 9 Oeste 17 Oeste 0 -- -- 62
2017-07-24 09:00:00 15.4 3 Este 6 Este 0 -- -- 68
2017-07-24 08:00:00 11.4 2 Sudeste 5 Este 0 -- -- 82
2017-07-24 07:00:00 9.9 3 Sudeste 5 Sudeste 0 -- -- 86
2017-07-24 06:00:00 11.3 0 Calma 5 Sur 0 -- -- 83
2017-07-24 05:00:00 12.9 0 Calma 5 Nordeste 0 -- -- 77
2017-07-24 04:00:00 14.3 6 Nordeste 14 Este 0 -- -- 72
2017-07-24 03:00:00 16 9 Sudeste 14 Sudeste 0 -- -- 67
2017-07-24 02:00:00 17.2 7 Este 14 Sudeste 0 -- -- 61
2017-07-24 01:00:00 18.2 5 Este 17 Este 0 -- -- 55
2017-07-24 00:00:00 18.9 8 Este 19 Este 0 -- -- 42
2017-07-23 23:00:00 22.6 13 Noroeste 20 Noroeste 0 -- -- 30
2017-07-23 22:00:00 23.7 12 Noroeste 21 Oeste 0 -- -- 30
2017-07-23 21:00:00 27 14 Noroeste 33 Noroeste 0 -- -- 26
2017-07-23 20:00:00 28.2 19 Noroeste 34 Noroeste 0 -- -- 25
2017-07-23 19:00:00 28.5 21 Noroeste 41 Oeste 0 -- -- 25
2017-07-23 18:00:00 29.4 24 Noroeste 44 Oeste 0 -- -- 24
2017-07-23 17:00:00 28.4 26 Oeste 43 Oeste 0 -- -- 25
2017-07-23 16:00:00 28.6 24 Oeste 44 Noroeste 0 -- -- 27
2017-07-23 15:00:00 28.5 23 Noroeste 40 Oeste 0 -- -- 28
2017-07-23 14:00:00 27.6 23 Noroeste 34 Noroeste 0 -- -- 30
2017-07-23 13:00:00 27.6 5 Sur 23 Oeste 0 -- -- 30
2017-07-23 12:00:00 25.3 6 Oeste 13 Sudeste 0 -- -- 38
2017-07-23 11:00:00 23.3 4 Este 9 Sudeste 0 -- -- 41
2017-07-23 10:00:00 19.7 3 Este 8 Sudeste 0 -- -- 54
2017-07-23 09:00:00 14.4 4 Este 8 Este 0 -- -- 61
2017-07-23 08:00:00 10.5 3 Nordeste 6 Este 0 -- -- 69
2017-07-23 07:00:00 8.8 5 Este 8 Este 0 -- -- 71
2017-07-23 06:00:00 9 0 Calma 9 Este 0 -- -- 68
2017-07-23 05:00:00 9.9 3 Nordeste 5 Nordeste 0 -- -- 65
2017-07-23 04:00:00 10.8 2 Nordeste 4 Norte 0 -- -- 60
2017-07-23 03:00:00 11.3 2 Este 7 Nordeste 0 -- -- 61
2017-07-23 02:00:00 12.3 4 Este 7 Nordeste 0 -- -- 59
2017-07-23 01:00:00 14.1 2 Sudeste 5 Este 0 -- -- 52
2017-07-23 00:00:00 18.1 2 Este 5 Este 0 -- -- 40
2017-07-22 23:00:00 19.6 2 Sudeste 9 Norte 0 -- -- 36
2017-07-22 22:00:00 22.4 7 Norte 21 Noroeste 0 -- -- 29
2017-07-22 21:00:00 26.5 16 Noroeste 31 Noroeste 0 -- -- 24
2017-07-22 20:00:00 28.1 20 Noroeste 33 Noroeste 0 -- -- 22
2017-07-22 19:00:00 29 20 Noroeste 33 Oeste 0 -- -- 23
2017-07-22 18:00:00 29 19 Oeste 51 Oeste 0 -- -- 24
2017-07-22 17:00:00 28.4 17 Oeste 39 Oeste 0 -- -- 25
2017-07-22 16:00:00 27.4 15 Oeste 32 Oeste 0 -- -- 28
2017-07-22 15:00:00 26.3 14 Noroeste 33 Oeste 0 -- -- 29
2017-07-22 14:00:00 25.5 15 Noroeste 29 Oeste 0 -- -- 31
2017-07-22 13:00:00 24.1 12 Oeste 22 Noroeste 0 -- -- 32
2017-07-22 12:00:00 23.3 8 Noroeste 21 Oeste 0 -- -- 33
2017-07-22 11:00:00 21.1 12 Oeste 18 Oeste 0 -- -- 35
2017-07-22 10:00:00 19 13 Oeste 19 Oeste 0 -- -- 42
2017-07-22 09:00:00 14.2 4 Este 7 Este 0 -- -- 61
2017-07-22 08:00:00 9.6 3 Este 6 Este 0 -- -- 76
2017-07-22 07:00:00 8.7 3 Este 6 Nordeste 0 -- -- 79
2017-07-22 06:00:00 9.1 2 Nordeste 5 Este 0 -- -- 75
2017-07-22 05:00:00 10.2 2 Este 5 Nordeste 0 -- -- 71
2017-07-22 04:00:00 10.6 2 Nordeste 4 Norte 0 -- -- 70
2017-07-22 03:00:00 11.5 2 Sudeste 5 Sudeste 0 -- -- 67
2017-07-22 02:00:00 13.6 3 Este 8 Este 0 -- -- 59
2017-07-22 01:00:00 15.4 2 Este 5 Oeste 0 -- -- 53
2017-07-22 00:00:00 17.9 0 Calma 10 Noroeste 0 -- -- 43